createdAt,value
2023-01-02T00:00:38.021Z,99.03
2023-01-02T00:03:05.257Z,99.13
2023-01-02T00:05:32.227Z,99.39
2023-01-02T00:07:59.170Z,99.58
2023-01-02T00:10:26.116Z,99.36
2023-01-02T00:12:53.095Z,99.03
2023-01-02T00:15:20.122Z,98.91
2023-01-02T00:17:47.022Z,98.26
2023-01-02T00:20:15.306Z,96.91
2023-01-02T00:22:43.541Z,96.05
2023-01-02T00:25:10.500Z,96.65
2023-01-02T00:27:37.509Z,97.72
2023-01-02T00:30:05.686Z,98.67
2023-01-02T00:32:32.606Z,100.00
2023-01-02T00:35:00.298Z,100.00
2023-01-02T00:37:27.263Z,100.00
2023-01-02T00:39:54.168Z,100.00
2023-01-02T00:42:21.180Z,99.89
2023-01-02T00:44:48.091Z,99.78
2023-01-02T00:47:15.493Z,99.98
2023-01-02T00:49:42.456Z,99.90
2023-01-02T00:52:09.467Z,99.72
2023-01-02T00:54:36.436Z,99.02
2023-01-02T00:57:03.501Z,100.00
2023-01-02T00:59:30.495Z,100.00
2023-01-02T01:01:57.578Z,99.72
2023-01-02T01:04:24.599Z,100.00
2023-01-02T01:06:51.543Z,100.00
2023-01-02T01:09:18.517Z,100.00
2023-01-02T01:11:45.440Z,100.00
2023-01-02T01:14:12.408Z,100.00
2023-01-02T01:16:39.476Z,100.00
2023-01-02T01:19:06.382Z,100.00
2023-01-02T01:21:33.537Z,100.00
2023-01-02T01:24:00.559Z,100.00
2023-01-02T01:26:27.631Z,100.00
2023-01-02T01:28:56.247Z,100.00
2023-01-02T01:31:24.058Z,100.00
2023-01-02T01:33:51.134Z,100.00
2023-01-02T01:36:20.964Z,100.00
2023-01-02T01:38:48.464Z,100.00
2023-01-02T01:41:24.282Z,100.00
2023-01-02T01:43:54.374Z,100.00
2023-01-02T01:46:32.351Z,100.00
2023-01-02T01:49:08.422Z,100.00
2023-01-02T01:51:44.240Z,100.00
2023-01-02T01:54:14.874Z,100.00
2023-01-02T01:56:47.849Z,100.00
2023-01-02T01:59:15.376Z,100.00
2023-01-02T02:01:43.719Z,100.00
2023-01-02T02:04:11.995Z,100.00
2023-01-02T02:06:39.753Z,100.00
2023-01-02T02:09:48.290Z,100.00
2023-01-02T02:12:35.121Z,100.00
2023-01-02T02:15:38.333Z,100.00
2023-01-02T02:18:37.399Z,100.00
2023-01-02T02:21:45.152Z,100.00
2023-01-02T02:24:48.783Z,100.00
2023-01-02T02:28:03.565Z,100.00
2023-01-02T02:30:40.980Z,100.00
2023-01-02T02:33:29.215Z,100.00
2023-01-02T02:36:04.451Z,100.00
2023-01-02T02:39:11.957Z,99.42
2023-01-02T02:41:58.787Z,100.00
2023-01-02T02:45:10.717Z,100.00
2023-01-02T02:47:49.681Z,100.00
2023-01-02T02:50:40.313Z,100.00
2023-01-02T02:53:21.171Z,100.00
2023-01-02T02:56:01.901Z,100.00
2023-01-02T02:58:30.284Z,100.00
2023-01-02T03:01:07.399Z,100.00
2023-01-02T03:03:34.827Z,100.00
2023-01-02T03:06:17.135Z,100.00
2023-01-02T03:09:13.937Z,100.00
2023-01-02T03:11:46.808Z,100.00
2023-01-02T03:14:24.926Z,100.00
2023-01-02T03:17:01.305Z,99.83
2023-01-02T03:19:38.218Z,98.19
2023-01-02T03:22:15.426Z,98.08
2023-01-02T03:24:44.982Z,98.82
2023-01-02T03:27:22.564Z,99.29
2023-01-02T03:30:03.801Z,100.00
2023-01-02T03:32:35.931Z,100.00
2023-01-02T03:35:08.681Z,100.00
2023-01-02T03:37:41.010Z,100.00
2023-01-02T03:40:13.769Z,100.00
2023-01-02T03:42:50.378Z,100.00
2023-01-02T03:45:23.409Z,100.00
2023-01-02T03:47:58.094Z,100.00
2023-01-02T03:50:41.136Z,100.00
2023-01-02T03:53:08.294Z,100.00
2023-01-02T03:55:40.499Z,100.00
2023-01-02T03:58:13.133Z,100.00
2023-01-02T04:00:53.384Z,100.00
2023-01-02T04:03:52.524Z,100.00
2023-01-02T04:06:32.619Z,100.00
2023-01-02T04:09:11.076Z,99.00
2023-01-02T04:11:42.070Z,100.00
2023-01-02T04:14:19.112Z,100.00
2023-01-02T04:16:49.692Z,100.00
2023-01-02T04:19:26.391Z,100.00
2023-01-02T04:21:58.570Z,100.00
2023-01-02T04:24:31.593Z,100.00
2023-01-02T04:27:08.570Z,100.00
2023-01-02T04:29:35.936Z,100.00
2023-01-02T04:32:13.889Z,100.00
2023-01-02T04:34:42.652Z,100.00
2023-01-02T04:37:09.604Z,100.00
2023-01-02T04:39:38.188Z,100.00
2023-01-02T04:42:05.162Z,100.00
2023-01-02T04:44:32.100Z,100.00
2023-01-02T04:46:59.003Z,100.00
2023-01-02T04:49:27.283Z,100.00
2023-01-02T04:51:54.218Z,100.00
2023-01-02T04:54:21.168Z,100.00
2023-01-02T04:56:48.088Z,100.00
2023-01-02T04:59:15.009Z,100.00
2023-01-02T05:01:42.093Z,100.00
2023-01-02T05:04:09.065Z,100.00
2023-01-02T05:06:36.113Z,100.00
2023-01-02T05:09:03.162Z,100.00
2023-01-02T05:11:30.174Z,100.00
2023-01-02T05:13:59.107Z,100.00
2023-01-02T05:16:29.519Z,100.00
2023-01-02T05:18:56.487Z,100.00
2023-01-02T05:21:41.924Z,100.00
2023-01-02T05:24:08.901Z,100.00
2023-01-02T05:26:35.804Z,100.00
2023-01-02T05:29:03.161Z,100.00
2023-01-02T05:31:32.731Z,100.00
2023-01-02T05:33:59.908Z,100.00
2023-01-02T05:36:27.804Z,100.00
2023-01-02T05:38:55.452Z,100.00
2023-01-02T05:41:23.971Z,100.00
2023-01-02T05:43:50.893Z,100.00
2023-01-02T05:46:20.280Z,100.00
2023-01-02T05:48:47.573Z,99.33
2023-01-02T05:51:17.198Z,100.00
2023-01-02T05:53:44.167Z,100.00
2023-01-02T05:56:17.748Z,100.00
2023-01-02T05:58:46.834Z,100.00
2023-01-02T06:01:16.491Z,100.00
2023-01-02T06:03:51.647Z,100.00
2023-01-02T06:06:23.003Z,100.00
2023-01-02T06:08:50.367Z,100.00
2023-01-02T06:11:17.661Z,100.00
2023-01-02T06:13:44.625Z,100.00
2023-01-02T06:16:11.698Z,100.00
2023-01-02T06:18:40.074Z,100.00
2023-01-02T06:21:16.190Z,100.00
2023-01-02T06:23:44.161Z,100.00
2023-01-02T06:26:16.964Z,100.00
2023-01-02T06:28:45.415Z,100.00
2023-01-02T06:31:15.625Z,100.00
2023-01-02T06:33:43.152Z,100.00
2023-01-02T06:36:12.946Z,100.00
2023-01-02T06:38:40.278Z,100.00
2023-01-02T06:41:08.528Z,100.00
2023-01-02T06:43:37.242Z,100.00
2023-01-02T06:46:05.782Z,100.00
2023-01-02T06:48:33.822Z,100.00
2023-01-02T06:51:04.473Z,100.00
2023-01-02T06:53:37.281Z,100.00
2023-01-02T06:56:05.312Z,100.00
2023-01-02T06:58:36.029Z,100.00
2023-01-02T07:01:09.182Z,100.00
2023-01-02T07:03:36.619Z,100.00
2023-01-02T07:06:09.415Z,100.00
2023-01-02T07:08:36.964Z,100.00
2023-01-02T07:11:15.887Z,100.00
2023-01-02T07:13:43.910Z,100.00
2023-01-02T07:16:14.201Z,100.00
2023-01-02T07:18:41.301Z,100.00
2023-01-02T07:21:10.101Z,100.00
2023-01-02T07:23:37.241Z,100.00
2023-01-02T07:26:07.131Z,100.00
2023-01-02T07:28:35.745Z,100.00
2023-01-02T07:31:05.059Z,100.00
2023-01-02T07:33:33.170Z,100.00
2023-01-02T07:36:01.916Z,100.00
2023-01-02T07:38:29.213Z,100.00
2023-01-02T07:40:56.251Z,100.00
2023-01-02T07:43:23.901Z,100.00
2023-01-02T07:45:51.245Z,100.00
2023-01-02T07:48:20.520Z,100.00
2023-01-02T07:50:48.898Z,100.00
2023-01-02T07:53:15.800Z,100.00
2023-01-02T07:55:42.731Z,100.00
2023-01-02T07:58:09.655Z,99.95
2023-01-02T08:00:36.609Z,99.63
2023-01-02T08:03:07.010Z,99.58
2023-01-02T08:05:34.740Z,99.78
2023-01-02T08:08:01.623Z,98.83
2023-01-02T08:10:28.553Z,99.21
2023-01-02T08:12:57.500Z,99.17
2023-01-02T08:15:25.914Z,99.30
2023-01-02T08:17:52.864Z,99.24
2023-01-02T08:20:19.767Z,100.00
2023-01-02T08:22:46.677Z,100.00
2023-01-02T08:25:13.700Z,100.00
2023-01-02T08:27:40.650Z,100.00
2023-01-02T08:30:08.610Z,100.00
2023-01-02T08:32:37.605Z,99.71
2023-01-02T08:35:06.749Z,100.00
2023-01-02T08:37:34.246Z,100.00
2023-01-02T08:40:01.150Z,100.00
2023-01-02T08:42:30.446Z,100.00
2023-01-02T08:44:57.381Z,99.98
2023-01-02T08:47:24.279Z,100.00
2023-01-02T08:49:51.267Z,100.00
2023-01-02T08:52:18.231Z,100.00
2023-01-02T08:54:45.140Z,100.00
2023-01-02T08:57:12.160Z,99.99
2023-01-02T08:59:39.100Z,99.99
2023-01-02T09:02:06.137Z,99.55
2023-01-02T09:04:33.125Z,99.91
2023-01-02T09:07:00.096Z,100.00
2023-01-02T09:09:27.039Z,99.86
2023-01-02T09:11:53.937Z,99.50
2023-01-02T09:14:22.241Z,99.77
2023-01-02T09:16:50.764Z,99.93
2023-01-02T09:19:18.344Z,99.67
2023-01-02T09:21:45.444Z,98.83
2023-01-02T09:24:12.437Z,97.74
2023-01-02T09:26:41.964Z,97.13
2023-01-02T09:29:11.073Z,96.20
2023-01-02T09:31:38.848Z,96.19
2023-01-02T09:34:06.087Z,96.05
2023-01-02T09:36:33.278Z,95.00
2023-01-02T09:39:01.707Z,93.77
2023-01-02T09:41:40.211Z,91.53
2023-01-02T09:44:25.687Z,89.77
2023-01-02T09:47:00.673Z,89.29
2023-01-02T09:49:55.898Z,88.24
2023-01-02T09:52:28.309Z,87.96
2023-01-02T09:54:55.372Z,87.10
2023-01-02T09:57:29.200Z,86.43
2023-01-02T10:00:35.654Z,85.91
2023-01-02T10:03:24.016Z,85.33
2023-01-02T10:06:09.050Z,84.43
2023-01-02T10:09:01.098Z,84.55
2023-01-02T10:11:30.899Z,83.77
2023-01-02T10:14:20.748Z,83.71
2023-01-02T10:16:54.511Z,83.03
2023-01-02T10:19:47.238Z,81.84
2023-01-02T10:22:19.617Z,81.50
2023-01-02T10:24:56.135Z,81.59
2023-01-02T10:27:30.205Z,80.56
2023-01-02T10:30:15.540Z,80.70
2023-01-02T10:32:48.412Z,79.81
2023-01-02T10:35:26.525Z,78.40
2023-01-02T10:37:56.560Z,78.76
2023-01-02T10:40:24.488Z,78.04
2023-01-02T10:42:59.967Z,78.26
2023-01-02T10:45:27.842Z,78.83
2023-01-02T10:47:54.741Z,77.86
2023-01-02T10:50:25.780Z,78.29
2023-01-02T10:53:05.995Z,78.84
2023-01-02T10:55:42.785Z,78.50
2023-01-02T10:58:29.828Z,77.65
2023-01-02T11:01:18.608Z,77.10
2023-01-02T11:04:12.313Z,77.41
2023-01-02T11:07:00.946Z,77.20
2023-01-02T11:09:30.469Z,76.36
2023-01-02T11:12:13.340Z,76.43
2023-01-02T11:14:40.779Z,75.82
2023-01-02T11:17:13.420Z,76.06
2023-01-02T11:19:45.573Z,76.15
2023-01-02T11:22:15.585Z,75.79
2023-01-02T11:25:03.000Z,75.27
2023-01-02T11:27:43.945Z,74.75
2023-01-02T11:30:27.480Z,74.53
2023-01-02T11:33:14.543Z,74.30
2023-01-02T11:35:52.879Z,74.50
2023-01-02T11:38:29.576Z,74.74
2023-01-02T11:41:02.916Z,74.26
2023-01-02T11:43:49.494Z,73.97
2023-01-02T11:46:36.660Z,73.63
2023-01-02T11:49:09.898Z,73.41
2023-01-02T11:51:41.010Z,74.05
2023-01-02T11:54:14.708Z,73.23
2023-01-02T11:56:45.571Z,73.93
2023-01-02T11:59:25.341Z,73.53
2023-01-02T12:02:12.437Z,73.23
2023-01-02T12:04:39.552Z,72.77
2023-01-02T12:08:00.263Z,72.61
2023-01-02T12:10:45.750Z,72.50
2023-01-02T12:13:54.239Z,71.61
2023-01-02T12:16:41.177Z,71.88
2023-01-02T12:19:10.971Z,70.94
2023-01-02T12:21:45.207Z,71.60
2023-01-02T12:24:30.171Z,70.51
2023-01-02T12:27:15.844Z,69.91
2023-01-02T12:29:48.084Z,70.71
2023-01-02T12:32:36.064Z,70.13
2023-01-02T12:35:41.110Z,70.79
2023-01-02T12:38:10.137Z,70.87
2023-01-02T12:41:14.270Z,70.73
2023-01-02T12:43:47.187Z,70.04
2023-01-02T12:46:46.615Z,70.24
2023-01-02T12:49:31.895Z,71.18
2023-01-02T12:52:05.222Z,71.33
2023-01-02T12:54:50.353Z,70.40
2023-01-02T12:57:25.883Z,69.98
2023-01-02T13:00:20.144Z,69.56
2023-01-02T13:03:48.496Z,69.65
2023-01-02T13:06:44.883Z,70.31
2023-01-02T13:09:26.868Z,70.01
2023-01-02T13:12:15.746Z,69.82
2023-01-02T13:14:58.119Z,70.64
2023-01-02T13:17:27.640Z,69.69
2023-01-02T13:20:15.155Z,70.08
2023-01-02T13:22:56.037Z,69.57
2023-01-02T13:25:24.311Z,69.39
2023-01-02T13:28:00.108Z,68.36
2023-01-02T13:30:42.447Z,69.22
2023-01-02T13:33:20.623Z,67.81
2023-01-02T13:35:47.957Z,68.65
2023-01-02T13:38:17.098Z,68.24
2023-01-02T13:40:44.291Z,68.14
2023-01-02T13:43:20.720Z,67.75
2023-01-02T13:45:54.061Z,67.76
2023-01-02T13:48:26.952Z,67.77
2023-01-02T13:51:20.765Z,67.83
2023-01-02T13:53:50.465Z,68.32
2023-01-02T13:56:28.853Z,68.18
2023-01-02T13:59:42.914Z,67.91
2023-01-02T14:02:21.597Z,68.25
2023-01-02T14:04:48.645Z,68.92
2023-01-02T14:07:27.971Z,69.31
2023-01-02T14:10:10.056Z,69.79
2023-01-02T14:13:05.824Z,69.64
2023-01-02T14:15:38.527Z,70.08
2023-01-02T14:18:09.662Z,69.68
2023-01-02T14:20:42.952Z,70.22
2023-01-02T14:23:23.475Z,70.66
2023-01-02T14:25:51.163Z,71.81
2023-01-02T14:28:31.441Z,72.23
2023-01-02T14:30:59.258Z,71.81
2023-01-02T14:33:35.187Z,72.54
2023-01-02T14:36:13.436Z,72.74
2023-01-02T14:38:51.228Z,73.35
2023-01-02T14:42:10.789Z,74.03
2023-01-02T14:44:42.645Z,74.83
2023-01-02T14:47:37.347Z,74.89
2023-01-02T14:50:12.653Z,75.47
2023-01-02T14:52:46.355Z,75.79
2023-01-02T14:55:21.797Z,76.82
2023-01-02T14:57:52.341Z,77.23
2023-01-02T15:00:24.014Z,78.27
2023-01-02T15:02:56.575Z,78.70
2023-01-02T15:05:39.305Z,78.92
2023-01-02T15:08:11.084Z,79.66
2023-01-02T15:10:58.268Z,79.70
2023-01-02T15:13:28.533Z,80.18
2023-01-02T15:15:59.970Z,80.23
2023-01-02T15:18:31.723Z,80.73
2023-01-02T15:21:11.044Z,81.82
2023-01-02T15:23:43.878Z,81.69
2023-01-02T15:26:34.397Z,81.92
2023-01-02T15:29:07.384Z,82.64
2023-01-02T15:31:34.637Z,83.51
2023-01-02T15:34:01.927Z,84.12
2023-01-02T15:36:41.645Z,84.99
2023-01-02T15:39:08.593Z,85.08
2023-01-02T15:41:43.131Z,85.44
2023-01-02T15:44:31.331Z,85.05
2023-01-02T15:46:59.735Z,85.76
2023-01-02T15:49:27.018Z,86.23
2023-01-02T15:51:57.663Z,86.98
2023-01-02T15:54:24.945Z,88.13
2023-01-02T15:56:51.993Z,87.69
2023-01-02T15:59:28.437Z,88.12
2023-01-02T16:01:56.448Z,89.26
2023-01-02T16:04:28.212Z,88.83
2023-01-02T16:06:57.249Z,89.06
2023-01-02T16:09:27.779Z,89.58
2023-01-02T16:11:57.846Z,90.52
2023-01-02T16:14:44.666Z,90.13
2023-01-02T16:17:17.232Z,90.39
2023-01-02T16:19:48.150Z,90.32
2023-01-02T16:22:20.699Z,89.64
2023-01-02T16:24:54.507Z,89.44
2023-01-02T16:27:30.831Z,89.35
2023-01-02T16:29:57.776Z,89.28
2023-01-02T16:32:28.834Z,89.78
2023-01-02T16:35:02.162Z,90.00
2023-01-02T16:37:31.766Z,89.61
2023-01-02T16:40:19.126Z,90.40
2023-01-02T16:43:08.160Z,89.94
2023-01-02T16:45:38.433Z,90.79
2023-01-02T16:48:07.728Z,90.28
2023-01-02T16:50:41.227Z,91.04
2023-01-02T16:53:10.914Z,91.13
2023-01-02T16:55:37.861Z,90.92
2023-01-02T16:58:06.269Z,90.61
2023-01-02T17:00:38.353Z,91.08
2023-01-02T17:03:22.883Z,90.47
2023-01-02T17:06:01.759Z,90.11
2023-01-02T17:08:32.315Z,91.53
2023-01-02T17:11:00.298Z,91.43
2023-01-02T17:13:28.438Z,91.79
2023-01-02T17:15:56.091Z,91.64
2023-01-02T17:18:23.603Z,92.09
2023-01-02T17:20:50.566Z,92.21
2023-01-02T17:23:19.708Z,92.69
2023-01-02T17:25:47.666Z,93.05
2023-01-02T17:28:15.160Z,92.87
2023-01-02T17:30:43.778Z,93.66
2023-01-02T17:33:11.397Z,93.74
2023-01-02T17:35:38.396Z,94.36
2023-01-02T17:38:05.376Z,93.80
2023-01-02T17:40:32.330Z,94.51
2023-01-02T17:42:59.427Z,95.30
2023-01-02T17:45:26.737Z,94.93
2023-01-02T17:48:12.303Z,94.38
2023-01-02T17:50:40.454Z,93.99
2023-01-02T17:53:08.069Z,94.87
2023-01-02T17:55:35.026Z,94.48
2023-01-02T17:58:02.141Z,94.97
2023-01-02T18:00:29.273Z,94.61
2023-01-02T18:02:56.389Z,94.32
2023-01-02T18:05:23.674Z,94.18
2023-01-02T18:07:50.844Z,94.59
2023-01-02T18:10:20.367Z,94.32
2023-01-02T18:12:49.784Z,94.72
2023-01-02T18:15:18.811Z,95.50
2023-01-02T18:17:46.218Z,96.10
2023-01-02T18:20:18.537Z,97.21
2023-01-02T18:22:50.074Z,96.30
2023-01-02T18:25:34.301Z,97.39
2023-01-02T18:28:24.096Z,97.36
2023-01-02T18:30:57.615Z,97.57
2023-01-02T18:33:26.428Z,98.59
2023-01-02T18:35:59.854Z,98.27
2023-01-02T18:38:35.258Z,98.22
2023-01-02T18:41:25.591Z,98.69
2023-01-02T18:44:00.960Z,99.98
2023-01-02T18:47:02.777Z,99.86
2023-01-02T18:49:26.882Z,99.10
2023-01-02T18:52:15.682Z,98.56
2023-01-02T18:54:46.341Z,98.25
2023-01-02T18:57:18.997Z,98.11
2023-01-02T18:59:52.285Z,97.35
2023-01-02T19:02:48.500Z,97.61
2023-01-02T19:05:27.496Z,96.77
2023-01-02T19:08:13.984Z,96.33
2023-01-02T19:10:45.032Z,96.52
2023-01-02T19:13:25.829Z,95.89
2023-01-02T19:16:02.677Z,95.80
2023-01-02T19:18:37.704Z,95.57
2023-01-02T19:21:31.027Z,96.01
2023-01-02T19:24:05.297Z,95.40
2023-01-02T19:26:47.399Z,95.83
2023-01-02T19:29:24.381Z,96.54
2023-01-02T19:32:10.304Z,96.19
2023-01-02T19:34:47.474Z,96.05
2023-01-02T19:37:30.485Z,96.92
2023-01-02T19:39:59.516Z,96.01
2023-01-02T19:42:29.103Z,96.39
2023-01-02T19:44:57.381Z,96.82
2023-01-02T19:47:33.655Z,98.84
2023-01-02T19:50:01.540Z,98.06
2023-01-02T19:52:29.953Z,98.25
2023-01-02T19:54:58.412Z,96.45
2023-01-02T19:57:26.249Z,98.18
2023-01-02T19:59:55.966Z,99.07
2023-01-02T20:02:26.560Z,99.69
2023-01-02T20:04:55.658Z,99.88
2023-01-02T20:07:24.712Z,99.48
2023-01-02T20:09:53.061Z,97.03
2023-01-02T20:12:30.360Z,97.92
2023-01-02T20:15:04.955Z,99.31
2023-01-02T20:17:33.129Z,100.00
2023-01-02T20:20:00.504Z,100.00
2023-01-02T20:22:28.529Z,100.00
2023-01-02T20:24:56.403Z,100.00
2023-01-02T20:27:25.660Z,100.00
2023-01-02T20:29:55.388Z,100.00
2023-01-02T20:32:23.414Z,100.00
2023-01-02T20:34:51.656Z,100.00
2023-01-02T20:37:21.695Z,100.00
2023-01-02T20:39:50.268Z,100.00
2023-01-02T20:42:17.449Z,100.00
2023-01-02T20:44:44.963Z,99.87
2023-01-02T20:47:12.257Z,99.44
2023-01-02T20:49:39.969Z,99.26
2023-01-02T20:52:07.631Z,98.97
2023-01-02T20:54:34.737Z,98.50
2023-01-02T20:57:02.476Z,98.86
2023-01-02T20:59:29.430Z,97.71
2023-01-02T21:01:56.537Z,97.75
2023-01-02T21:04:30.642Z,97.05
2023-01-02T21:07:01.324Z,96.66
2023-01-02T21:09:28.538Z,96.44
2023-01-02T21:11:55.562Z,96.74
2023-01-02T21:14:22.514Z,96.69
2023-01-02T21:16:49.476Z,95.90
2023-01-02T21:19:16.737Z,95.96
2023-01-02T21:21:43.668Z,95.82
2023-01-02T21:24:10.613Z,96.50
2023-01-02T21:26:37.534Z,96.42
2023-01-02T21:29:04.620Z,96.43
2023-01-02T21:31:31.732Z,96.26
2023-01-02T21:33:58.815Z,95.76
2023-01-02T21:36:25.777Z,95.28
2023-01-02T21:38:52.736Z,94.58
2023-01-02T21:41:38.302Z,94.96
2023-01-02T21:44:05.475Z,95.80
2023-01-02T21:46:32.671Z,94.35
2023-01-02T21:48:59.646Z,95.54
2023-01-02T21:51:32.394Z,96.44
2023-01-02T21:54:00.286Z,96.39
2023-01-02T21:56:27.567Z,96.40
2023-01-02T21:58:55.391Z,96.22
2023-01-02T22:01:22.523Z,96.65
2023-01-02T22:03:49.535Z,96.70
2023-01-02T22:06:18.501Z,96.42
2023-01-02T22:08:48.232Z,96.05
2023-01-02T22:11:33.821Z,95.69
2023-01-02T22:14:01.318Z,95.68
2023-01-02T22:16:28.489Z,95.99
2023-01-02T22:18:55.535Z,95.83
2023-01-02T22:21:22.547Z,95.99
2023-01-02T22:23:49.523Z,95.70
2023-01-02T22:26:18.882Z,95.47
2023-01-02T22:28:45.984Z,95.27
2023-01-02T22:31:13.019Z,95.58
2023-01-02T22:33:41.290Z,95.39
2023-01-02T22:36:09.550Z,95.08
2023-01-02T22:38:43.907Z,95.36
2023-01-02T22:41:22.112Z,95.50
2023-01-02T22:43:49.118Z,95.83
2023-01-02T22:46:24.358Z,95.41
2023-01-02T22:48:52.459Z,96.02
2023-01-02T22:51:25.937Z,95.91
2023-01-02T22:54:03.752Z,96.84
2023-01-02T22:56:31.812Z,96.70
2023-01-02T22:59:01.584Z,95.82
2023-01-02T23:01:33.907Z,96.56
2023-01-02T23:04:01.488Z,96.51
2023-01-02T23:06:29.193Z,96.34
2023-01-02T23:08:56.466Z,96.57
2023-01-02T23:11:24.177Z,95.83
2023-01-02T23:13:56.276Z,95.99
2023-01-02T23:16:42.541Z,96.34
2023-01-02T23:19:15.666Z,96.58
2023-01-02T23:21:45.764Z,97.21
2023-01-02T23:24:16.297Z,96.57
2023-01-02T23:26:46.212Z,96.50
2023-01-02T23:29:14.466Z,96.71
2023-01-02T23:31:45.998Z,96.36
2023-01-02T23:34:15.337Z,96.95
2023-01-02T23:36:43.045Z,96.44
2023-01-02T23:39:15.653Z,96.71
2023-01-02T23:41:44.180Z,96.66
2023-01-02T23:44:12.733Z,96.04
2023-01-02T23:46:40.683Z,96.60
2023-01-02T23:49:09.281Z,96.51
2023-01-02T23:51:37.392Z,96.92
2023-01-02T23:54:05.830Z,96.31
2023-01-02T23:56:36.991Z,96.80
2023-01-02T23:59:07.128Z,96.74
